createdAt,value
2023-03-14T00:03:12.289Z,12.08
2023-03-14T00:10:47.806Z,11.97
2023-03-14T00:18:22.130Z,11.88
2023-03-14T00:26:01.538Z,11.80
2023-03-14T00:33:35.873Z,11.72
2023-03-14T00:49:04.234Z,11.55
2023-03-14T00:56:39.944Z,11.54
2023-03-14T01:04:14.080Z,11.46
2023-03-14T01:19:42.842Z,11.33
2023-03-14T01:27:18.211Z,11.29
2023-03-14T01:34:52.325Z,11.26
2023-03-14T01:42:27.967Z,11.19
2023-03-14T01:50:06.843Z,11.26
2023-03-14T01:57:46.834Z,11.20
2023-03-14T02:05:23.914Z,11.11
2023-03-14T02:13:03.752Z,11.03
2023-03-14T02:20:44.760Z,11.00
2023-03-14T02:28:21.150Z,11.00
2023-03-14T02:35:58.631Z,10.94
2023-03-14T02:43:34.273Z,10.86
2023-03-14T02:51:10.258Z,10.88
2023-03-14T02:58:45.661Z,10.82
2023-03-14T03:06:19.631Z,10.81
2023-03-14T03:13:55.104Z,10.74
2023-03-14T03:21:29.246Z,10.79
2023-03-14T03:29:05.202Z,10.74
2023-03-14T03:36:39.241Z,10.72
2023-03-14T03:44:15.156Z,10.66
2023-03-14T03:51:49.061Z,10.68
2023-03-14T03:59:24.423Z,10.70
2023-03-14T04:06:58.376Z,10.70
2023-03-14T04:14:33.707Z,10.72
2023-03-14T04:22:07.655Z,10.75
2023-03-14T04:29:43.208Z,10.76
2023-03-14T04:37:17.223Z,10.77
2023-03-14T04:44:52.787Z,10.74
2023-03-14T04:52:26.896Z,10.72
2023-03-14T05:00:02.569Z,10.66
2023-03-14T05:07:36.482Z,10.64
2023-03-14T05:15:12.567Z,10.61
2023-03-14T05:22:46.695Z,10.59
2023-03-14T05:30:22.682Z,10.57
2023-03-14T05:37:56.691Z,10.56
2023-03-14T05:45:33.878Z,10.60
2023-03-14T05:53:08.599Z,10.63
2023-03-14T06:00:44.227Z,10.61
2023-03-14T06:08:18.221Z,10.60
2023-03-14T06:15:53.555Z,10.63
2023-03-14T06:23:27.617Z,10.70
2023-03-14T06:31:03.027Z,10.74
2023-03-14T06:38:36.742Z,10.80
2023-03-14T06:46:12.280Z,11.01
2023-03-14T06:53:46.257Z,11.06
2023-03-14T07:01:25.556Z,11.10
2023-03-14T07:09:00.142Z,11.17
2023-03-14T07:16:35.932Z,11.13
2023-03-14T07:24:10.264Z,11.16
2023-03-14T07:31:45.867Z,11.25
2023-03-14T07:39:20.055Z,11.29
2023-03-14T07:46:55.794Z,11.39
2023-03-14T07:54:30.178Z,11.46
2023-03-14T08:02:06.867Z,11.72
2023-03-14T08:09:40.851Z,11.79
2023-03-14T08:17:16.188Z,11.89
2023-03-14T08:24:50.146Z,12.00
2023-03-14T08:32:25.826Z,11.95
2023-03-14T08:39:59.790Z,12.06
2023-03-14T08:47:35.442Z,12.08
2023-03-14T08:55:10.925Z,12.12
2023-03-14T09:10:39.600Z,12.45
2023-03-14T09:18:15.452Z,13.25
2023-03-14T09:33:42.507Z,14.00
2023-03-14T09:41:19.941Z,13.73
2023-03-14T09:48:55.650Z,13.45
2023-03-14T09:56:34.312Z,13.29
2023-03-14T10:12:11.350Z,13.16
2023-03-14T10:19:57.345Z,13.06
2023-03-14T10:27:33.737Z,13.10
2023-03-14T10:43:17.622Z,13.03
2023-03-14T10:50:57.913Z,13.09
2023-03-14T10:58:35.172Z,13.07
2023-03-14T11:06:16.874Z,13.09
2023-03-14T11:14:00.317Z,13.15
2023-03-14T11:21:39.552Z,13.17
2023-03-14T11:29:22.318Z,13.21
2023-03-14T11:37:02.460Z,13.09
2023-03-14T11:44:40.619Z,13.05
2023-03-14T11:52:22.542Z,13.03
2023-03-14T12:00:04.839Z,13.02
2023-03-14T12:07:52.667Z,13.05
2023-03-14T12:15:27.120Z,13.18
2023-03-14T12:23:07.632Z,13.21
2023-03-14T12:30:43.177Z,13.19
2023-03-14T12:38:29.222Z,13.16
2023-03-14T12:46:11.513Z,13.18
2023-03-14T12:54:18.202Z,13.07
2023-03-14T13:01:57.300Z,12.71
2023-03-14T13:09:55.664Z,12.34
2023-03-14T13:17:36.590Z,12.28
2023-03-14T13:25:13.624Z,12.38
2023-03-14T13:32:49.670Z,12.55
2023-03-14T13:40:31.574Z,12.93
2023-03-14T13:48:06.090Z,13.02
2023-03-14T13:55:41.724Z,13.33
2023-03-14T14:03:16.015Z,13.46
2023-03-14T14:10:52.036Z,13.52
2023-03-14T14:18:29.907Z,13.57
2023-03-14T14:26:09.250Z,13.59
2023-03-14T14:33:45.602Z,13.64
2023-03-14T14:41:21.730Z,13.70
2023-03-14T14:48:58.479Z,13.61
2023-03-14T14:56:38.360Z,13.58
2023-03-14T15:04:14.665Z,13.48
2023-03-14T15:11:52.080Z,11.77
2023-03-14T15:19:29.888Z,7.71
2023-03-14T15:27:05.824Z,6.97
2023-03-14T15:34:39.874Z,6.30
2023-03-14T15:42:15.113Z,5.72
2023-03-14T15:49:49.123Z,5.20
2023-03-14T15:57:24.700Z,5.00
2023-03-14T16:04:58.928Z,4.21
2023-03-14T16:28:20.045Z,2.41
2023-03-14T16:35:57.841Z,2.28
2023-03-14T16:51:25.737Z,2.16
2023-03-14T16:59:01.071Z,2.24
2023-03-14T17:06:35.165Z,2.17
2023-03-14T17:14:10.569Z,2.29
2023-03-14T17:21:44.525Z,2.45
2023-03-14T17:37:11.017Z,2.61
2023-03-14T17:44:47.830Z,2.78
2023-03-14T17:52:21.820Z,2.97
2023-03-14T17:59:57.150Z,3.03
2023-03-14T18:07:31.357Z,3.07
2023-03-14T18:15:07.662Z,3.15
2023-03-14T18:22:42.377Z,3.24
2023-03-14T18:38:11.492Z,3.40
2023-03-14T18:45:46.829Z,3.37
2023-03-14T18:53:22.077Z,3.43
2023-03-14T19:24:35.237Z,3.52
2023-03-14T19:32:12.188Z,3.53
2023-03-14T19:39:47.129Z,3.43
2023-03-14T19:47:22.474Z,3.44
2023-03-14T19:54:57.528Z,3.37
2023-03-14T20:02:33.077Z,3.31
2023-03-14T20:10:08.955Z,3.25
2023-03-14T20:17:44.249Z,3.24
2023-03-14T20:25:19.796Z,3.19
2023-03-14T20:32:55.254Z,3.13
2023-03-14T20:40:29.681Z,3.09
2023-03-14T20:48:05.262Z,3.05
2023-03-14T20:55:39.282Z,3.03
2023-03-14T21:03:15.229Z,3.00
2023-03-14T21:10:50.351Z,2.98
2023-03-14T21:18:26.033Z,2.93
2023-03-14T21:25:59.986Z,2.88
2023-03-14T21:33:35.727Z,2.85
2023-03-14T21:49:02.755Z,2.75
2023-03-14T21:56:36.834Z,2.63
2023-03-14T22:04:12.021Z,2.62
2023-03-14T22:11:46.156Z,2.64
2023-03-14T22:19:22.612Z,2.56
2023-03-14T22:26:56.845Z,2.56
2023-03-14T22:34:32.335Z,2.58
2023-03-14T22:42:06.783Z,2.60
2023-03-14T22:49:42.100Z,2.58
2023-03-14T22:57:16.200Z,2.48
2023-03-14T23:04:51.868Z,2.47
2023-03-14T23:12:25.930Z,2.45
2023-03-14T23:20:01.564Z,2.42
2023-03-14T23:27:35.584Z,2.38
2023-03-14T23:35:12.709Z,2.36
2023-03-14T23:42:46.783Z,2.31
2023-03-14T23:50:22.309Z,2.25
2023-03-14T23:57:56.260Z,2.27
